• Join FlightAware (Why Join?)
  • Login
  • US Flag 
08:21PM EDT


 

Airport Tracker/Info


-or-


 

Live Flight TrackerFlight Track Log ✈ USC250 ✈ 19-Jun-2013 ✈ KPHL - KBWI

Flight Track Log - Related Links

Times and Time Zones

All times are in EDT time to prevent confusion due to time zone crossing. See the USC250 flight status page for this flight to view local times or setup timezone preferences in your user account.

Time Position Orientation Groundspeed Altitude Reporting Facility
EDT Latitude Longitude Course Direction KTS MPH feet Rate Location/Type
06:50AM 39.8833 -75.2000 142° Southeast 101 116 1,200  Level Philadelphia TRACON
06:51AM 39.8500 -75.1667 142° Southeast 124 143 3,200 1,260 Climbing Philadelphia TRACON
06:52AM 39.8333 -75.2000 237° Southwest 128 147 4,300 1,140 Climbing Philadelphia TRACON
06:53AM 39.8167 -75.2500 247° West 130 150 5,400 840 Climbing Philadelphia TRACON
06:54AM 39.8000 -75.2833 237° Southwest 128 147 6,000 300 Climbing Philadelphia TRACON
06:55AM 39.7833 -75.3500 252° West 167 192 6,100  Climbing Philadelphia TRACON
06:56AM 39.7667 -75.4000 247° West 173 199 6,000 -60 Descending Philadelphia TRACON
06:57AM 39.7500 -75.4667 252° West 173 199 6,000  Level Philadelphia TRACON
06:58AM 39.7500 -75.5167 270° West 169 194 6,000  Level Philadelphia TRACON
06:59AM 39.7333 -75.5667 247° West 173 199 6,100  Climbing Philadelphia TRACON
07:00AM 39.7333 -75.6333 270° West 175 201 6,000 -60 Descending Philadelphia TRACON
07:01AM 39.7167 -75.7000 252° West 174 200 6,000  Level Philadelphia TRACON
07:02AM 39.7000 -75.7500 247° West 173 199 6,000  Level Philadelphia TRACON
07:03AM 39.6833 -75.8167 252° West 175 201 6,000  Level Philadelphia TRACON
07:06AM 39.6500 -75.9667 254° West 173 199 6,000  Level Potomac TRACON
07:07AM 39.6500 -76.0167 270° West 171 197 6,000 -120 Level Potomac TRACON
07:09AM 39.6167 -76.1500 252° West 179 206 5,700 -420 Descending Potomac TRACON
07:10AM 39.6000 -76.2000 247° West 191 220 4,900 -840 Descending Potomac TRACON
07:11AM 39.6000 -76.2667 270° West 188 216 4,100 -480 Descending Potomac TRACON
07:12AM 39.5500 -76.3000 207° Southwest 190 219 4,000 -60 Descending Potomac TRACON
07:13AM 39.5000 -76.3500 218° Southwest 177 204 4,000 -60 Level Potomac TRACON
07:14AM 39.4667 -76.3833 218° Southwest 178 205 3,900  Descending Potomac TRACON
07:15AM 39.4333 -76.4167 218° Southwest 175 201 4,000 -240 Climbing Potomac TRACON
07:15AM 39.3833 -76.4167 180° South 188 216 3,500 -480 Descending Potomac TRACON
07:16AM 39.3333 -76.4333 194° South 195 224 3,100 -300 Descending Potomac TRACON
07:17AM 39.2833 -76.4500 194° South 181 208 2,900 -300 Descending Potomac TRACON
07:18AM 39.2333 -76.4833 207° Southwest 195 224 2,500 -480 Descending Potomac TRACON
07:19AM 39.1833 -76.5000 194° South 193 222 2,100 -300 Descending Potomac TRACON
07:20AM 39.1333 -76.5167 194° South 180 207 2,000 -180 Descending Potomac TRACON
07:21AM 39.1333 -76.5667 270° West 178 205 1,800 -240 Descending Potomac TRACON